Time;durP1;ratioP1;P1;durP2;ratioP2;P2;SDS_P1;SDS_P2;PMS_P1;PMS_P2;Temp;Humidity;BMP_temperature;BMP_pressure;BME280_temperature;BME280_humidity;BME280_pressure;Samples;Min_cycle;Max_cycle;Signal;HPM_P1;HPM_P2
2022/10/31 00:00:48;;;;;;;19.88;5.78;;;;;;;11.54;77.88;101156.94;2011461;29;20042;-69
2022/10/31 00:01:51;;;;;;;15.55;6.03;;;;;;;11.55;77.73;101163.94;2010110;29;20041;-69
2022/10/31 00:02:54;;;;;;;17.38;6.00;;;;;;;11.56;77.71;101157.44;2019079;29;20049;-69
2022/10/31 00:03:59;;;;;;;18.02;6.70;;;;;;;11.55;77.68;101153.16;2010767;29;20044;-69
2022/10/31 00:05:06;;;;;;;19.90;6.82;;;;;;;11.55;77.47;101163.94;2004567;29;20062;-70
2022/10/31 00:06:14;;;;;;;19.02;6.60;;;;;;;11.55;77.41;101162.03;2011392;29;20060;-71
2022/10/31 00:07:16;;;;;;;16.42;6.32;;;;;;;11.56;77.24;101165.53;2003936;29;20049;-73
2022/10/31 00:08:22;;;;;;;19.48;7.25;;;;;;;11.57;77.30;101161.78;2011140;29;20508;-71
2022/10/31 00:09:27;;;;;;;27.50;7.53;;;;;;;11.57;77.31;101167.16;2010306;29;20037;-71
2022/10/31 00:10:33;;;;;;;18.35;6.90;;;;;;;11.56;77.12;101154.75;2010517;29;20382;-69
2022/10/31 00:11:36;;;;;;;20.55;6.72;;;;;;;11.55;77.17;101162.03;2010068;29;20084;-69
2022/10/31 00:12:41;;;;;;;19.83;6.28;;;;;;;11.56;77.02;101157.44;2010187;29;20049;-69
2022/10/31 00:13:46;;;;;;;28.42;6.85;;;;;;;11.56;77.31;101149.38;2010115;29;20045;-69
2022/10/31 00:14:52;;;;;;;22.10;7.30;;;;;;;11.55;76.95;101148.56;2017825;29;20036;-69
2022/10/31 00:15:57;;;;;;;17.48;6.60;;;;;;;11.52;76.81;101154.50;2010120;29;20049;-70
2022/10/31 00:17:00;;;;;;;16.23;6.75;;;;;;;11.52;76.72;101153.69;2009012;29;20060;-70
2022/10/31 00:18:04;;;;;;;17.00;6.65;;;;;;;11.53;76.84;101152.59;2002609;29;20041;-70
2022/10/31 00:19:11;;;;;;;15.98;6.20;;;;;;;11.53;76.94;101155.31;2010508;29;20060;-70
2022/10/31 00:20:14;;;;;;;15.55;6.60;;;;;;;11.53;76.58;101158.78;2010607;29;20687;-70
2022/10/31 00:21:19;;;;;;;17.35;6.47;;;;;;;11.54;76.92;101148.84;2025446;29;20040;-70
2022/10/31 00:22:22;;;;;;;17.58;6.35;;;;;;;11.54;76.90;101157.75;2017503;29;20048;-70
2022/10/31 00:23:27;;;;;;;20.70;6.55;;;;;;;11.52;76.80;101156.38;2010098;29;20427;-70
2022/10/31 00:24:29;;;;;;;14.82;7.18;;;;;;;11.49;76.37;101155.03;2009993;29;20037;-70
2022/10/31 00:25:35;;;;;;;16.60;6.95;;;;;;;11.45;76.34;101153.16;2002636;29;20509;-71
2022/10/31 00:26:39;;;;;;;15.65;6.63;;;;;;;11.42;76.55;101151.00;2010172;29;20049;-69
2022/10/31 00:27:44;;;;;;;21.98;7.35;;;;;;;11.42;76.47;101153.69;2009828;29;20050;-70
2022/10/31 00:28:47;;;;;;;12.75;6.60;;;;;;;11.41;76.52;101152.06;2003091;29;20034;-69
2022/10/31 00:29:49;;;;;;;19.00;7.80;;;;;;;11.39;76.66;101151.53;2002787;29;20073;-69
2022/10/31 00:30:56;;;;;;;20.02;7.47;;;;;;;11.39;76.64;101160.44;2002281;29;20562;-69
2022/10/31 00:31:59;;;;;;;17.17;7.93;;;;;;;11.39;76.77;101156.94;1997220;29;20042;-69
2022/10/31 00:33:05;;;;;;;15.98;6.72;;;;;;;11.40;77.03;101161.22;2010105;29;20422;-69
2022/10/31 00:34:07;;;;;;;19.10;7.32;;;;;;;11.39;76.64;101159.63;2009917;29;20516;-69
2022/10/31 00:35:10;;;;;;;15.25;6.82;;;;;;;11.35;76.78;101152.09;2009718;29;20060;-69
2022/10/31 00:36:16;;;;;;;12.20;7.57;;;;;;;11.36;76.59;101159.06;2003059;29;20058;-69
2022/10/31 00:37:18;;;;;;;17.38;7.85;;;;;;;11.36;76.46;101155.56;2010052;29;20059;-69
2022/10/31 00:38:21;;;;;;;15.60;7.30;;;;;;;11.34;76.62;101158.53;2002340;29;20036;-69
2022/10/31 00:39:24;;;;;;;16.35;8.25;;;;;;;11.34;76.68;101149.66;1994988;29;20086;-68
2022/10/31 00:40:29;;;;;;;18.40;8.23;;;;;;;11.31;76.27;101161.75;1994735;29;20034;-69
2022/10/31 00:41:32;;;;;;;17.83;7.93;;;;;;;11.31;76.36;101153.69;2003523;29;20418;-70
2022/10/31 00:42:34;;;;;;;17.92;7.75;;;;;;;11.29;76.46;101158.53;2009791;29;20056;-71
2022/10/31 00:43:37;;;;;;;20.15;8.13;;;;;;;11.28;76.58;101156.91;2010424;29;20037;-69
2022/10/31 00:44:45;;;;;;;19.77;8.82;;;;;;;11.28;76.58;101159.59;2009280;29;20064;-69
2022/10/31 00:45:47;;;;;;;19.05;8.63;;;;;;;11.29;76.97;101166.63;2010414;29;20041;-69
2022/10/31 00:46:50;;;;;;;19.88;8.35;;;;;;;11.26;76.79;101161.78;2005148;29;20510;-69
2022/10/31 00:48:00;;;;;;;17.67;8.50;;;;;;;11.25;76.95;101162.03;2003926;29;20048;-69
2022/10/31 00:49:02;;;;;;;19.23;8.63;;;;;;;11.27;77.05;101162.56;2002165;29;20042;-71
2022/10/31 00:50:08;;;;;;;16.63;8.48;;;;;;;11.26;77.18;101167.16;1995330;29;20064;-70
2022/10/31 00:51:10;;;;;;;18.70;8.13;;;;;;;11.26;76.97;101161.78;2017422;29;20052;-69
2022/10/31 00:52:12;;;;;;;18.48;8.13;;;;;;;11.24;76.86;101163.91;2002144;29;20415;-70
2022/10/31 00:53:15;;;;;;;20.83;8.70;;;;;;;11.24;77.05;101161.22;2009972;29;20505;-70
2022/10/31 00:54:18;;;;;;;18.65;8.25;;;;;;;11.24;77.35;101169.28;2017320;29;20390;-69
2022/10/31 00:55:20;;;;;;;22.50;8.32;;;;;;;11.22;77.06;101157.97;2017305;29;20048;-68
2022/10/31 00:56:23;;;;;;;18.23;8.30;;;;;;;11.23;77.19;101161.50;2024629;29;20032;-68
2022/10/31 00:57:28;;;;;;;22.50;8.68;;;;;;;11.25;77.34;101153.94;2009791;29;20729;-69
2022/10/31 00:58:31;;;;;;;17.80;7.90;;;;;;;11.27;77.42;101158.00;2018065;29;20595;-70
2022/10/31 00:59:34;;;;;;;19.95;7.90;;;;;;;11.27;77.53;101162.56;2010474;29;20049;-71
2022/10/31 01:00:38;;;;;;;22.42;8.10;;;;;;;11.24;77.37;101161.22;2010913;29;20089;-71
2022/10/31 01:01:47;;;;;;;22.45;9.27;;;;;;;11.21;77.65;101158.25;2009397;29;20060;-70
2022/10/31 01:02:51;;;;;;;15.32;7.40;;;;;;;11.23;77.76;101166.88;2011677;29;20056;-70
2022/10/31 01:03:56;;;;;;;17.40;8.45;;;;;;;11.25;78.29;101164.72;2003053;29;20045;-71
2022/10/31 01:05:01;;;;;;;20.10;8.75;;;;;;;11.23;78.11;101166.88;2003684;29;20049;-71
2022/10/31 01:06:07;;;;;;;19.00;9.10;;;;;;;11.20;78.14;101167.41;2010820;29;20481;-69
2022/10/31 01:07:11;;;;;;;21.17;8.68;;;;;;;11.18;78.63;101167.66;2003556;29;20046;-70
2022/10/31 01:08:13;;;;;;;18.35;8.05;;;;;;;11.20;78.94;101170.09;2018356;29;20036;-71
2022/10/31 01:09:16;;;;;;;22.25;8.85;;;;;;;11.20;78.72;101172.81;2010277;29;20056;-71
2022/10/31 01:10:24;;;;;;;18.42;8.32;;;;;;;11.20;78.89;101175.50;2004861;29;20050;-71
2022/10/31 01:11:28;;;;;;;20.25;8.40;;;;;;;11.21;79.22;101171.72;2003203;29;20033;-71
2022/10/31 01:12:35;;;;;;;22.48;8.82;;;;;;;11.21;79.63;101175.22;2003025;29;20455;-70
2022/10/31 01:13:42;;;;;;;19.83;9.18;;;;;;;11.22;79.80;101173.31;2003759;29;20046;-72
2022/10/31 01:14:48;;;;;;;19.73;9.63;;;;;;;11.24;79.67;101176.56;2002755;29;20046;-71
2022/10/31 01:15:55;;;;;;;22.83;9.18;;;;;;;11.19;79.32;101169.31;2002696;29;20046;-71
2022/10/31 01:16:58;;;;;;;22.58;8.75;;;;;;;11.16;79.93;101171.69;1998078;29;20057;-71
2022/10/31 01:18:03;;;;;;;22.48;8.85;;;;;;;11.12;79.84;101171.44;1994780;29;20058;-71
2022/10/31 01:19:09;;;;;;;22.08;9.27;;;;;;;11.10;80.01;101168.22;2000877;29;20057;-71
2022/10/31 01:20:13;;;;;;;26.23;9.75;;;;;;;11.08;79.89;101170.34;1995291;29;20447;-71
2022/10/31 01:21:22;;;;;;;25.60;9.07;;;;;;;11.06;79.97;101170.59;2002482;29;20398;-71
2022/10/31 01:22:24;;;;;;;24.33;9.18;;;;;;;11.05;80.49;101177.06;2010428;29;20045;-70
2022/10/31 01:23:27;;;;;;;24.67;9.35;;;;;;;11.03;80.52;101173.03;2001923;29;20449;-68
2022/10/31 01:24:33;;;;;;;21.17;8.80;;;;;;;11.03;80.45;101167.63;2010065;29;20057;-71
2022/10/31 01:25:38;;;;;;;19.77;9.07;;;;;;;11.03;80.58;101168.44;2016514;29;20517;-70
2022/10/31 01:26:44;;;;;;;29.65;9.88;;;;;;;11.01;80.81;101178.69;2002131;29;20061;-71
2022/10/31 01:27:50;;;;;;;18.13;8.90;;;;;;;10.99;80.50;101177.31;2009564;29;20214;-70
2022/10/31 01:28:55;;;;;;;26.05;8.40;;;;;;;10.96;80.93;101177.84;2009568;29;20620;-71
2022/10/31 01:30:00;;;;;;;24.77;9.05;;;;;;;10.92;81.03;101182.16;2002392;29;20056;-69
2022/10/31 01:31:06;;;;;;;24.98;9.63;;;;;;;10.90;81.45;101175.16;1987229;29;20054;-71
2022/10/31 01:32:10;;;;;;;23.05;9.18;;;;;;;10.93;81.36;101178.38;1996130;29;20403;-70
2022/10/31 01:33:13;;;;;;;26.70;9.38;;;;;;;10.97;81.73;101183.00;2002794;29;20398;-70
2022/10/31 01:34:20;;;;;;;19.02;8.52;;;;;;;10.97;81.72;101176.78;2011059;29;20046;-70
2022/10/31 01:35:23;;;;;;;22.63;8.77;;;;;;;10.97;82.15;101176.78;2009727;29;20044;-70
2022/10/31 01:36:33;;;;;;;20.08;8.98;;;;;;;10.97;81.92;101169.53;2011791;29;20041;-68
2022/10/31 01:37:36;;;;;;;19.40;8.48;;;;;;;10.99;82.18;101177.31;2017125;29;20132;-68
2022/10/31 01:38:38;;;;;;;21.10;9.68;;;;;;;10.99;82.53;101166.56;2003276;29;20421;-70
2022/10/31 01:39:41;;;;;;;20.98;9.50;;;;;;;10.98;82.67;101162.28;2018393;29;20037;-71
2022/10/31 01:40:48;;;;;;;22.77;9.48;;;;;;;10.98;82.98;101164.97;2017828;29;20456;-72
2022/10/31 01:41:52;;;;;;;20.30;9.00;;;;;;;10.95;83.06;101162.81;2002336;29;20050;-71
2022/10/31 01:42:55;;;;;;;23.98;9.40;;;;;;;10.96;83.61;101164.41;1995889;29;20110;-70
2022/10/31 01:44:03;;;;;;;21.33;9.32;;;;;;;10.94;83.30;101167.38;2010187;29;20045;-70
2022/10/31 01:45:13;;;;;;;25.77;9.20;;;;;;;10.93;83.65;101170.31;2010600;29;20068;-70
2022/10/31 01:46:19;;;;;;;19.35;9.00;;;;;;;10.90;83.47;101166.28;2026146;29;20032;-70
2022/10/31 01:47:39;;;;;;;18.60;8.43;;;;;;;10.87;84.04;101164.91;2016091;29;20058;-70
2022/10/31 01:48:45;;;;;;;23.05;9.13;;;;;;;10.85;83.76;101164.38;2010515;29;20052;-70
2022/10/31 01:49:53;;;;;;;19.40;9.45;;;;;;;10.84;83.92;101165.44;2010094;29;20045;-71
2022/10/31 01:50:57;;;;;;;19.63;9.50;;;;;;;10.87;84.38;101156.84;2010360;29;20072;-70
2022/10/31 01:52:18;;;;;;;17.38;8.35;;;;;;;10.89;84.46;101160.09;2010505;29;20069;-70
2022/10/31 01:53:23;;;;;;;18.38;9.10;;;;;;;10.89;84.51;101162.78;2010323;29;20041;-68
2022/10/31 01:54:34;;;;;;;22.38;8.95;;;;;;;10.93;84.99;101164.94;2009230;29;20045;-70
2022/10/31 01:55:48;;;;;;;17.75;8.95;;;;;;;10.94;85.32;101163.84;2008912;29;20049;-70
2022/10/31 01:56:55;;;;;;;17.98;8.20;;;;;;;10.95;85.38;101157.41;2009441;29;20046;-70
2022/10/31 01:58:09;;;;;;;20.23;8.75;;;;;;;10.94;85.11;101163.84;2001642;29;20042;-70
2022/10/31 01:59:20;;;;;;;19.48;8.65;;;;;;;10.89;85.49;101168.16;2010614;29;20050;-69
2022/10/31 02:00:22;;;;;;;18.17;8.70;;;;;;;10.86;85.56;101162.50;2015008;29;20056;-70
2022/10/31 02:01:28;;;;;;;21.27;9.20;;;;;;;10.82;86.20;101164.13;2009253;29;20437;-70
2022/10/31 02:02:32;;;;;;;22.15;9.07;;;;;;;10.81;85.98;101165.16;2008269;29;20383;-69
2022/10/31 02:03:35;;;;;;;21.00;8.48;;;;;;;10.82;86.34;101167.59;2016600;29;20060;-70
2022/10/31 02:04:42;;;;;;;21.42;9.30;;;;;;;10.84;86.55;101165.44;2016350;29;20040;-70
2022/10/31 02:05:53;;;;;;;17.73;8.73;;;;;;;10.84;86.98;101168.13;2001668;29;20054;-69
2022/10/31 02:07:19;;;;;;;20.20;8.43;;;;;;;10.84;86.57;101175.41;2010079;29;20053;-69
2022/10/31 02:08:32;;;;;;;15.80;8.35;;;;;;;10.84;86.67;101176.19;2007780;29;20053;-69
2022/10/31 02:09:36;;;;;;;18.67;9.07;;;;;;;10.83;86.69;101177.28;2001505;29;20395;-69
2022/10/31 02:10:38;;;;;;;17.50;8.38;;;;;;;10.83;86.94;101171.09;2002850;29;20041;-69
2022/10/31 02:11:44;;;;;;;21.30;9.40;;;;;;;10.81;87.24;101168.69;2010685;29;20048;-69
2022/10/31 02:12:50;;;;;;;17.27;8.98;;;;;;;10.80;87.43;101168.94;2017593;29;20040;-70
2022/10/31 02:13:56;;;;;;;21.05;8.93;;;;;;;10.80;87.63;101169.75;2018055;29;20048;-70
2022/10/31 02:15:02;;;;;;;17.08;8.77;;;;;;;10.80;88.31;101169.75;2017282;29;20037;-70
2022/10/31 02:16:06;;;;;;;21.80;9.30;;;;;;;10.81;88.30;101171.38;2010395;29;20053;-69
2022/10/31 02:17:09;;;;;;;20.77;8.98;;;;;;;10.82;88.56;101173.00;2001575;29;20048;-69
2022/10/31 02:18:12;;;;;;;23.10;9.18;;;;;;;10.82;88.79;101177.56;1988157;29;20038;-70
2022/10/31 02:19:40;;;;;;;20.95;9.10;;;;;;;10.81;89.13;101171.38;2010407;29;20508;-70
2022/10/31 02:21:02;;;;;;;21.55;10.18;;;;;;;10.78;88.94;101171.91;2006288;29;20061;-69
2022/10/31 02:22:14;;;;;;;22.73;10.13;;;;;;;10.76;89.65;101174.03;2013156;29;20048;-69
2022/10/31 02:23:30;;;;;;;22.25;9.68;;;;;;;10.77;89.35;101172.16;2001319;29;20042;-70
2022/10/31 02:25:03;;;;;;;20.95;10.18;;;;;;;10.75;90.09;101177.81;1989785;29;20049;-70
2022/10/31 02:26:43;;;;;;;21.73;9.88;;;;;;;10.74;90.35;101180.75;2002797;29;20120;-71
2022/10/31 02:28:26;;;;;;;24.83;8.98;;;;;;;10.73;90.95;101181.84;2010265;29;20037;-71
2022/10/31 02:30:00;;;;;;;19.40;8.30;;;;;;;10.71;91.18;101184.78;1995053;29;20479;-71
2022/10/31 02:31:44;;;;;;;23.45;9.20;;;;;;;10.71;91.92;101187.47;2009504;29;20049;-71
2022/10/31 02:33:03;;;;;;;21.55;9.23;;;;;;;10.72;91.97;101193.66;1999197;29;20392;-70
2022/10/31 02:34:19;;;;;;;;;;;;;;;10.69;92.55;101181.56;2004274;29;20529;-70
2022/10/31 02:35:40;;;;;;;22.23;7.60;;;;;;;10.74;93.12;101191.50;2001292;29;19928;-70
2022/10/31 02:37:21;;;;;;;21.70;8.60;;;;;;;10.74;93.13;101186.94;2004670;29;20407;-69
2022/10/31 02:38:38;;;;;;;24.95;9.38;;;;;;;10.77;93.58;101191.78;2016289;29;20041;-70
2022/10/31 02:39:47;;;;;;;40.28;9.80;;;;;;;10.81;93.71;101198.28;2007025;29;20052;-70
2022/10/31 02:41:14;;;;;;;24.30;8.90;;;;;;;10.83;93.91;101192.63;2010663;29;20071;-70
2022/10/31 02:42:55;;;;;;;26.33;9.18;;;;;;;10.78;94.32;101203.34;2004479;29;20050;-70
2022/10/31 02:44:30;;;;;;;22.90;8.70;;;;;;;10.74;94.25;101200.38;2009248;29;20041;-70
2022/10/31 02:45:50;;;;;;;22.00;10.20;;;;;;;10.78;94.46;101198.81;2002068;29;20060;-71
2022/10/31 02:47:17;;;;;;;24.38;9.82;;;;;;;10.78;95.17;101203.34;2002631;29;20459;-71
2022/10/31 02:48:26;;;;;;;27.13;10.73;;;;;;;10.76;95.37;101195.56;2009494;29;20034;-71
2022/10/31 02:49:42;;;;;;;26.52;10.63;;;;;;;10.74;95.10;101195.00;2011216;29;20045;-71
2022/10/31 02:50:59;;;;;;;26.10;9.35;;;;;;;10.70;95.74;101199.31;2010035;29;20041;-71
2022/10/31 02:52:02;;;;;;;29.33;10.15;;;;;;;10.67;95.87;101191.75;2019551;29;20410;-71
2022/10/31 02:53:13;;;;;;;33.88;10.15;;;;;;;10.70;96.32;101196.63;2016390;29;20056;-71
2022/10/31 02:54:23;;;;;;;28.58;10.82;;;;;;;10.71;96.48;101197.41;2003727;29;20045;-70
2022/10/31 02:55:27;;;;;;;26.90;10.70;;;;;;;10.70;96.64;101190.44;2002597;29;20042;-71
2022/10/31 02:56:35;;;;;;;30.77;10.40;;;;;;;10.69;97.16;101192.31;2010774;29;20049;-71
2022/10/31 02:57:42;;;;;;;66.45;11.30;;;;;;;10.69;97.29;101200.38;2002188;29;20049;-71
2022/10/31 02:58:54;;;;;;;45.35;11.35;;;;;;;10.68;97.17;101199.56;2011450;29;20052;-70
2022/10/31 03:00:01;;;;;;;55.33;11.13;;;;;;;10.68;97.88;101199.56;2008546;29;20415;-71
2022/10/31 03:01:31;;;;;;;73.40;10.70;;;;;;;10.69;97.79;101200.38;1996811;29;20046;-71
2022/10/31 03:03:16;;;;;;;45.58;11.68;;;;;;;10.72;97.98;101202.56;2019323;29;20421;-70
2022/10/31 03:04:24;;;;;;;32.15;11.55;;;;;;;10.77;98.72;101202.56;2003337;29;20038;-71
2022/10/31 03:05:30;;;;;;;31.23;10.77;;;;;;;10.81;98.45;101211.72;2010490;29;20435;-70
2022/10/31 03:06:41;;;;;;;40.95;11.10;;;;;;;10.82;98.89;101207.97;2008291;29;20057;-71
2022/10/31 03:07:48;;;;;;;137.25;13.35;;;;;;;10.81;98.94;101203.66;2003594;29;20053;-71
2022/10/31 03:09:03;;;;;;;62.28;11.43;;;;;;;10.83;99.10;101208.75;2001241;29;20042;-70
2022/10/31 03:10:27;;;;;;;61.75;12.27;;;;;;;10.86;99.31;101200.97;1997299;29;20038;-70
2022/10/31 03:11:45;;;;;;;34.42;11.43;;;;;;;10.88;99.60;101209.59;2004196;29;20076;-70
2022/10/31 03:13:36;;;;;;;37.95;10.57;;;;;;;10.88;99.73;101209.59;2009105;29;20062;-70
2022/10/31 03:14:54;;;;;;;57.15;11.65;;;;;;;10.93;99.76;101219.56;2006001;29;20114;-69
2022/10/31 03:16:14;;;;;;;101.47;15.95;;;;;;;10.97;99.99;101214.44;2019719;29;20036;-70
2022/10/31 03:17:36;;;;;;;168.40;13.88;;;;;;;10.98;100.00;101211.50;2020736;29;20036;-69
2022/10/31 03:18:49;;;;;;;75.15;13.20;;;;;;;10.98;100.00;101216.09;2010125;29;20486;-69
2022/10/31 03:19:55;;;;;;;53.65;14.90;;;;;;;10.97;100.00;101217.97;2008934;29;20414;-70
2022/10/31 03:21:05;;;;;;;45.30;15.68;;;;;;;11.00;100.00;101211.22;2017578;29;20045;-69
2022/10/31 03:22:21;;;;;;;46.95;15.10;;;;;;;10.98;100.00;101213.38;2006876;29;20501;-69
2022/10/31 03:23:28;;;;;;;56.95;18.00;;;;;;;11.00;100.00;101213.91;2001954;29;20049;-70
2022/10/31 03:24:36;;;;;;;57.15;19.98;;;;;;;10.96;100.00;101215.53;2003498;29;20506;-69
2022/10/31 03:25:45;;;;;;;58.13;21.05;;;;;;;10.93;100.00;101214.16;2001012;29;20054;-70
2022/10/31 03:26:55;;;;;;;115.90;24.23;;;;;;;10.92;100.00;101219.81;2003575;29;20046;-69
2022/10/31 03:28:03;;;;;;;75.50;25.02;;;;;;;10.94;100.00;101220.34;2002386;29;20081;-70
2022/10/31 03:29:14;;;;;;;117.68;27.00;;;;;;;10.94;100.00;101218.50;2010838;29;20046;-69
2022/10/31 03:30:18;;;;;;;76.32;27.13;;;;;;;10.91;100.00;101216.34;2024159;29;20052;-70
2022/10/31 03:31:38;;;;;;;75.20;27.77;;;;;;;10.89;100.00;101227.34;2008312;29;20041;-70
2022/10/31 03:32:51;;;;;;;134.35;29.70;;;;;;;10.93;100.00;101227.63;2002345;29;20041;-70
2022/10/31 03:33:58;;;;;;;109.43;30.23;;;;;;;10.92;100.00;101217.13;2005349;29;20515;-70
2022/10/31 03:35:07;;;;;;;96.57;30.92;;;;;;;10.93;100.00;101232.19;2010806;29;20045;-69
2022/10/31 03:36:23;;;;;;;116.55;32.78;;;;;;;10.93;100.00;101227.63;2007466;29;20455;-70
2022/10/31 03:37:30;;;;;;;166.02;28.58;;;;;;;10.94;100.00;101220.34;2008880;29;20041;-70
2022/10/31 03:38:35;;;;;;;147.38;28.77;;;;;;;10.81;100.00;101222.50;2000354;29;20068;-71
2022/10/31 03:39:41;;;;;;;123.95;26.40;;;;;;;10.83;100.00;101217.63;2009677;29;20049;-71
2022/10/31 03:40:47;;;;;;;76.18;23.60;;;;;;;10.84;100.00;101219.25;2007369;29;20049;-71
2022/10/31 03:42:05;;;;;;;164.40;23.60;;;;;;;10.84;100.00;101218.44;2001917;29;20410;-71
2022/10/31 03:43:13;;;;;;;61.78;22.88;;;;;;;10.83;100.00;101219.53;2006270;29;20046;-71
2022/10/31 03:44:19;;;;;;;59.20;21.25;;;;;;;10.85;100.00;101218.19;1993475;29;20057;-71
2022/10/31 03:45:31;;;;;;;89.03;21.90;;;;;;;10.88;100.00;101220.34;2004216;29;20078;-71
2022/10/31 03:46:35;;;;;;;64.80;19.67;;;;;;;10.89;100.00;101213.91;2000830;29;20042;-71
2022/10/31 03:47:43;;;;;;;75.78;17.90;;;;;;;10.90;100.00;101212.00;2002956;29;20427;-70
2022/10/31 03:48:49;;;;;;;73.82;18.38;;;;;;;10.87;100.00;101218.72;2014467;29;20470;-70
2022/10/31 03:49:54;;;;;;;75.45;17.75;;;;;;;10.88;100.00;101216.88;2009075;29;20052;-70
2022/10/31 03:51:13;;;;;;;96.20;17.45;;;;;;;10.88;100.00;101220.34;2002479;29;20046;-70
2022/10/31 03:52:47;;;;;;;60.55;16.90;;;;;;;10.85;100.00;101214.69;2020038;29;20037;-71
2022/10/31 03:54:13;;;;;;;95.05;17.08;;;;;;;10.85;100.00;101220.06;2013155;29;20049;-70
2022/10/31 03:55:24;;;;;;;87.72;16.73;;;;;;;10.83;100.00;101220.31;2017243;29;20358;-71
2022/10/31 03:56:34;;;;;;;80.45;18.25;;;;;;;10.83;100.00;101216.84;2002318;29;20046;-70
2022/10/31 03:57:53;;;;;;;70.38;16.67;;;;;;;10.80;100.00;101215.47;1996867;29;20050;-70
2022/10/31 03:59:05;;;;;;;111.47;16.42;;;;;;;10.83;100.00;101211.44;2003666;29;20049;-71
2022/10/31 04:00:27;;;;;;;92.97;16.02;;;;;;;10.82;100.00;101210.66;2008887;29;20526;-70
2022/10/31 04:01:36;;;;;;;134.75;17.35;;;;;;;10.79;100.00;101208.50;2005542;29;20049;-71
2022/10/31 04:02:44;;;;;;;86.00;16.77;;;;;;;10.79;100.00;101213.88;2002599;29;20061;-71
2022/10/31 04:03:51;;;;;;;109.13;18.63;;;;;;;10.80;100.00;101207.41;2001891;29;20058;-71
2022/10/31 04:04:54;;;;;;;68.95;17.67;;;;;;;10.83;100.00;101217.63;2001523;29;20523;-71
2022/10/31 04:06:01;;;;;;;187.63;19.55;;;;;;;10.84;100.00;101208.47;2002562;29;20049;-71
2022/10/31 04:07:05;;;;;;;91.00;18.45;;;;;;;10.86;100.00;101217.13;2017772;29;20059;-71
2022/10/31 04:08:15;;;;;;;88.65;18.73;;;;;;;10.83;100.00;101212.25;2002705;29;20044;-71
2022/10/31 04:09:20;;;;;;;73.63;17.83;;;;;;;10.85;100.00;101217.38;1995756;29;20047;-71
2022/10/31 04:10:24;;;;;;;76.53;17.38;;;;;;;10.83;100.00;101214.94;2003266;29;20054;-71
2022/10/31 04:11:32;;;;;;;76.93;18.58;;;;;;;10.83;100.00;101206.88;2010130;29;20037;-71
2022/10/31 04:13:00;;;;;;;48.22;17.90;;;;;;;10.82;100.00;101199.88;2010359;29;20037;-71
2022/10/31 04:14:11;;;;;;;87.93;18.25;;;;;;;10.81;100.00;101203.66;2025495;29;20047;-71
2022/10/31 04:15:15;;;;;;;89.15;18.42;;;;;;;10.82;100.00;101207.16;2017154;29;20037;-71
2022/10/31 04:16:19;;;;;;;54.53;18.65;;;;;;;10.83;100.00;101201.50;2010265;29;20099;-72
2022/10/31 04:17:27;;;;;;;97.85;18.05;;;;;;;10.83;100.00;101212.25;2017307;29;20040;-71
2022/10/31 04:18:32;;;;;;;96.70;19.63;;;;;;;10.82;100.00;101209.84;2001201;29;20529;-71
2022/10/31 04:19:36;;;;;;;98.10;18.40;;;;;;;10.77;100.00;101202.56;1995237;29;20046;-71
2022/10/31 04:20:40;;;;;;;76.43;18.48;;;;;;;10.73;100.00;101204.16;1995004;29;20243;-71
2022/10/31 04:21:45;;;;;;;65.57;17.17;;;;;;;10.61;100.00;101203.56;2009922;29;20038;-71
2022/10/31 04:22:49;;;;;;;86.57;18.38;;;;;;;10.60;100.00;101196.59;2010097;29;20049;-71
2022/10/31 04:23:58;;;;;;;96.15;18.13;;;;;;;10.59;100.00;101197.63;1996090;29;20038;-71
2022/10/31 04:25:01;;;;;;;;;;;;;;;10.58;100.00;101204.09;2005051;29;20041;-71
2022/10/31 04:26:07;;;;;;;54.38;16.48;;;;;;;10.58;100.00;101202.22;2010535;29;19920;-71
2022/10/31 04:27:09;;;;;;;72.13;17.77;;;;;;;10.59;100.00;101205.69;2018795;29;20045;-70
2022/10/31 04:28:12;;;;;;;158.38;18.63;;;;;;;10.56;100.00;101211.59;2010517;29;20120;-71
2022/10/31 04:29:14;;;;;;;60.85;19.15;;;;;;;10.54;100.00;101211.06;2003435;29;20037;-71
2022/10/31 04:30:17;;;;;;;68.13;18.80;;;;;;;10.52;100.00;101205.13;1996180;29;20034;-70
2022/10/31 04:31:22;;;;;;;65.35;18.63;;;;;;;10.53;100.00;101212.13;1996235;29;20046;-70
2022/10/31 04:32:27;;;;;;;81.97;18.75;;;;;;;10.52;100.00;101210.53;2011511;29;20041;-71
2022/10/31 04:33:33;;;;;;;65.10;18.98;;;;;;;10.52;100.00;101210.53;2011766;29;20038;-71
2022/10/31 04:34:38;;;;;;;63.28;17.15;;;;;;;10.53;100.00;101207.59;2011475;29;20046;-71
2022/10/31 04:35:41;;;;;;;51.17;17.67;;;;;;;10.56;100.00;101206.22;2010903;29;20585;-71
2022/10/31 04:36:43;;;;;;;143.02;22.20;;;;;;;10.55;100.00;101208.09;2011028;29;20040;-71
2022/10/31 04:37:45;;;;;;;103.70;20.63;;;;;;;10.53;100.00;101206.75;2003335;29;20064;-71
2022/10/31 04:38:51;;;;;;;72.35;19.20;;;;;;;10.52;100.00;101205.13;2003401;29;20046;-71
2022/10/31 04:40:15;;;;;;;75.38;18.98;;;;;;;10.54;100.00;101203.00;2006365;29;20033;-72
2022/10/31 04:41:23;;;;;;;106.13;18.50;;;;;;;10.52;100.00;101203.25;2011184;29;20048;-73
2022/10/31 04:42:33;;;;;;;87.03;19.17;;;;;;;10.52;100.00;101195.19;2011128;29;20048;-72
2022/10/31 04:43:39;;;;;;;151.65;19.92;;;;;;;10.54;100.00;101197.63;2019642;29;20053;-72
2022/10/31 04:44:42;;;;;;;67.38;18.77;;;;;;;10.55;100.00;101193.88;2017924;29;20461;-72
2022/10/31 04:45:46;;;;;;;57.60;17.70;;;;;;;10.56;100.00;101190.09;2011031;29;20042;-72
2022/10/31 04:46:49;;;;;;;93.10;19.45;;;;;;;10.57;100.00;101192.53;2010719;29;20046;-72
2022/10/31 04:47:55;;;;;;;81.80;16.95;;;;;;;10.59;100.00;101194.94;2018697;29;20047;-73
2022/10/31 04:48:58;;;;;;;64.93;17.30;;;;;;;10.61;100.00;101190.13;2009104;29;20044;-72
2022/10/31 04:50:04;;;;;;;77.78;17.70;;;;;;;10.60;100.00;101191.19;2003438;29;20041;-72
2022/10/31 04:51:11;;;;;;;84.55;19.10;;;;;;;10.59;100.00;101189.56;2019469;29;20048;-72
2022/10/31 04:52:17;;;;;;;89.90;18.55;;;;;;;10.58;100.00;101185.28;2010122;29;20034;-72
2022/10/31 04:53:22;;;;;;;82.70;17.40;;;;;;;10.59;100.00;101186.88;1996450;29;20103;-71
2022/10/31 04:54:59;;;;;;;66.68;17.10;;;;;;;10.59;100.00;101184.19;2018034;29;20148;-72
2022/10/31 04:56:25;;;;;;;67.60;16.88;;;;;;;10.58;100.00;101175.31;2009337;29;20054;-72
2022/10/31 04:57:45;;;;;;;108.78;17.38;;;;;;;10.59;100.00;101174.28;2009269;29;20050;-72
2022/10/31 04:58:51;;;;;;;69.60;16.83;;;;;;;10.60;100.00;101175.06;2002073;29;20060;-72
2022/10/31 04:59:57;;;;;;;91.75;17.15;;;;;;;10.60;100.00;101175.88;2002652;29;20057;-72
2022/10/31 05:01:04;;;;;;;71.90;17.17;;;;;;;10.60;100.00;101177.75;2010482;29;20044;-71
2022/10/31 05:02:10;;;;;;;91.97;17.05;;;;;;;10.59;100.00;101176.13;2010073;29;20041;-71
2022/10/31 05:03:21;;;;;;;79.60;16.35;;;;;;;10.57;100.00;101175.59;2011011;29;20033;-71
2022/10/31 05:04:29;;;;;;;65.88;16.48;;;;;;;10.57;100.00;101176.41;2015862;29;20075;-72
2022/10/31 05:05:36;;;;;;;55.53;16.25;;;;;;;10.57;100.00;101176.41;2009776;29;20042;-71
2022/10/31 05:06:39;;;;;;;90.95;16.98;;;;;;;10.57;100.00;101178.28;2002703;29;20045;-72
2022/10/31 05:07:48;;;;;;;73.40;17.15;;;;;;;10.57;100.00;101172.91;2002924;29;20046;-72
2022/10/31 05:08:56;;;;;;;58.60;15.93;;;;;;;10.56;100.00;101176.66;2018956;29;20041;-72
2022/10/31 05:10:00;;;;;;;49.83;16.25;;;;;;;10.53;100.00;101177.16;2009948;29;20052;-72
2022/10/31 05:11:06;;;;;;;72.20;16.38;;;;;;;10.52;100.00;101171.00;2002205;29;20038;-71
2022/10/31 05:12:10;;;;;;;66.20;14.77;;;;;;;10.53;100.00;101169.09;2009580;29;20049;-71
2022/10/31 05:13:34;;;;;;;58.00;14.93;;;;;;;10.53;100.00;101174.47;2009336;29;20483;-71
2022/10/31 05:15:00;;;;;;;58.45;16.10;;;;;;;10.52;100.00;101170.19;2012614;29;20053;-71